Terminal Aerodrome Forecast
Issued by NWS Melbourne, FL

Home | Current Version | Previous Version | Text Only | Print | Product List | Glossary On
Versions: 1 2 3 4 5 6 7 8 9 10 11 12 13 14 15
000
FTUS42 KMLB 231500 AAA
TAFDAB
TAF AMD
KDAB 231534Z 2316/2412 19006KT P6SM VCSH SCT020 BKN200
     FM231700 VRB04KT P6SM VCTS SCT030CB BKN120
      TEMPO 2317/2321 3SM TSRA BKN025CB
     FM232100 20006KT P6SM VCTS SCT025CB BKN060
     FM240200 15003KT P6SM SCT040 BKN150=

USA.gov is the U.S. government's official web portal to all federal, state and local government web resources and services.